sensor_id;sensor_type;location;lat;lon;timestamp;pressure;altitude;pressure_sealevel;temperature;humidity
31082;BME280;17737;52.586;13.284;2023-04-06T00:00:01;101647.78;;;3.92;64.80
31082;BME280;17737;52.586;13.284;2023-04-06T00:02:31;101650.47;;;3.92;64.96
31082;BME280;17737;52.586;13.284;2023-04-06T00:04:59;101647.91;;;3.90;65.16
31082;BME280;17737;52.586;13.284;2023-04-06T00:07:27;101648.31;;;3.84;65.33
31082;BME280;17737;52.586;13.284;2023-04-06T00:09:56;101648.72;;;3.78;65.56
31082;BME280;17737;52.586;13.284;2023-04-06T00:12:24;101644.69;;;3.85;65.17
31082;BME280;17737;52.586;13.284;2023-04-06T00:14:53;101651.09;;;3.83;64.92
31082;BME280;17737;52.586;13.284;2023-04-06T00:17:22;101644.69;;;3.73;65.56
31082;BME280;17737;52.586;13.284;2023-04-06T00:19:50;101641.25;;;3.71;65.32
31082;BME280;17737;52.586;13.284;2023-04-06T00:22:18;101643.16;;;3.68;65.45
31082;BME280;17737;52.586;13.284;2023-04-06T00:24:46;101639.09;;;3.63;65.61
31082;BME280;17737;52.586;13.284;2023-04-06T00:27:14;101639.97;;;3.63;65.90
31082;BME280;17737;52.586;13.284;2023-04-06T00:29:43;101634.63;;;3.63;65.65
31082;BME280;17737;52.586;13.284;2023-04-06T00:32:13;101634.84;;;3.60;65.58
31082;BME280;17737;52.586;13.284;2023-04-06T00:34:41;101637.78;;;3.56;66.03
31082;BME280;17737;52.586;13.284;2023-04-06T00:37:10;101636.09;;;3.55;66.00
31082;BME280;17737;52.586;13.284;2023-04-06T00:39:39;101628.97;;;3.55;65.79
31082;BME280;17737;52.586;13.284;2023-04-06T00:42:10;101634.41;;;3.54;65.68
31082;BME280;17737;52.586;13.284;2023-04-06T00:44:40;101632.69;;;3.53;65.63
31082;BME280;17737;52.586;13.284;2023-04-06T00:47:09;101634.59;;;3.51;65.79
31082;BME280;17737;52.586;13.284;2023-04-06T00:49:38;101634.78;;;3.48;66.03
31082;BME280;17737;52.586;13.284;2023-04-06T00:52:07;101631.91;;;3.51;65.90
31082;BME280;17737;52.586;13.284;2023-04-06T00:54:36;101637.66;;;3.45;66.09
31082;BME280;17737;52.586;13.284;2023-04-06T00:57:04;101638.53;;;3.45;65.55
31082;BME280;17737;52.586;13.284;2023-04-06T00:59:33;101632.44;;;3.43;66.04
31082;BME280;17737;52.586;13.284;2023-04-06T01:02:01;101634.25;;;3.43;65.81
31082;BME280;17737;52.586;13.284;2023-04-06T01:04:29;101629.41;;;3.35;66.07
31082;BME280;17737;52.586;13.284;2023-04-06T01:06:59;101635.38;;;3.26;66.23
31082;BME280;17737;52.586;13.284;2023-04-06T01:09:27;101630.91;;;3.27;66.09
31082;BME280;17737;52.586;13.284;2023-04-06T01:11:56;101622.53;;;3.19;66.09
31082;BME280;17737;52.586;13.284;2023-04-06T01:14:25;101623.72;;;3.15;66.39
31082;BME280;17737;52.586;13.284;2023-04-06T01:16:57;101630.63;;;3.17;66.24
31082;BME280;17737;52.586;13.284;2023-04-06T01:19:27;101625.88;;;3.08;66.21
31082;BME280;17737;52.586;13.284;2023-04-06T01:21:56;101630.19;;;3.11;66.36
31082;BME280;17737;52.586;13.284;2023-04-06T01:24:26;101619.91;;;3.05;66.51
31082;BME280;17737;52.586;13.284;2023-04-06T01:26:54;101621.31;;;3.10;66.51
31082;BME280;17737;52.586;13.284;2023-04-06T01:29:22;101620.13;;;3.02;66.28
31082;BME280;17737;52.586;13.284;2023-04-06T01:31:51;101624.97;;;2.95;66.11
31082;BME280;17737;52.586;13.284;2023-04-06T01:34:19;101623.66;;;2.88;66.30
31082;BME280;17737;52.586;13.284;2023-04-06T01:36:47;101620.06;;;2.89;66.36
31082;BME280;17737;52.586;13.284;2023-04-06T01:39:15;101619.09;;;2.90;66.51
31082;BME280;17737;52.586;13.284;2023-04-06T01:41:45;101633.41;;;2.75;67.25
31082;BME280;17737;52.586;13.284;2023-04-06T01:44:16;101630.94;;;2.72;67.84
31082;BME280;17737;52.586;13.284;2023-04-06T01:46:45;101622.19;;;2.70;68.25
31082;BME280;17737;52.586;13.284;2023-04-06T01:49:13;101624.28;;;2.65;69.41
31082;BME280;17737;52.586;13.284;2023-04-06T01:51:41;101620.56;;;2.68;68.27
31082;BME280;17737;52.586;13.284;2023-04-06T01:54:09;101622.38;;;2.67;68.29
31082;BME280;17737;52.586;13.284;2023-04-06T01:56:37;101623.31;;;2.66;68.16
31082;BME280;17737;52.586;13.284;2023-04-06T01:59:07;101617.44;;;2.61;68.15
31082;BME280;17737;52.586;13.284;2023-04-06T02:01:36;101611.19;;;2.62;68.02
31082;BME280;17737;52.586;13.284;2023-04-06T02:04:04;101615.19;;;2.55;67.88
31082;BME280;17737;52.586;13.284;2023-04-06T02:06:32;101615.94;;;2.57;67.38
31082;BME280;17737;52.586;13.284;2023-04-06T02:09:00;101613.44;;;2.54;67.92
31082;BME280;17737;52.586;13.284;2023-04-06T02:11:28;101609.97;;;2.54;67.92
31082;BME280;17737;52.586;13.284;2023-04-06T02:13:56;101608.72;;;2.45;68.24
31082;BME280;17737;52.586;13.284;2023-04-06T02:16:28;101614.03;;;2.45;68.34
31082;BME280;17737;52.586;13.284;2023-04-06T02:18:56;101614.03;;;2.45;68.06
31082;BME280;17737;52.586;13.284;2023-04-06T02:21:24;101617.84;;;2.41;68.45
31082;BME280;17737;52.586;13.284;2023-04-06T02:23:52;101611.19;;;2.34;68.82
31082;BME280;17737;52.586;13.284;2023-04-06T02:26:20;101615.47;;;2.36;68.72
31082;BME280;17737;52.586;13.284;2023-04-06T02:28:48;101613.38;;;2.27;68.60
31082;BME280;17737;52.586;13.284;2023-04-06T02:31:16;101614.69;;;2.20;69.50
31082;BME280;17737;52.586;13.284;2023-04-06T02:33:46;101616.00;;;2.13;70.12
31082;BME280;17737;52.586;13.284;2023-04-06T02:36:14;101612.91;;;2.21;69.19
31082;BME280;17737;52.586;13.284;2023-04-06T02:38:42;101609.66;;;2.16;69.45
31082;BME280;17737;52.586;13.284;2023-04-06T02:41:10;101616.13;;;2.12;69.60
31082;BME280;17737;52.586;13.284;2023-04-06T02:43:38;101611.75;;;2.11;69.42
31082;BME280;17737;52.586;13.284;2023-04-06T02:46:06;101609.44;;;2.05;69.97
31082;BME280;17737;52.586;13.284;2023-04-06T02:48:35;101610.88;;;1.96;70.19
31082;BME280;17737;52.586;13.284;2023-04-06T02:51:05;101618.06;;;1.94;70.81
31082;BME280;17737;52.586;13.284;2023-04-06T02:53:32;101616.84;;;2.00;69.84
31082;BME280;17737;52.586;13.284;2023-04-06T02:56:01;101612.09;;;1.91;70.21
31082;BME280;17737;52.586;13.284;2023-04-06T02:58:29;101610.19;;;1.93;70.06
31082;BME280;17737;52.586;13.284;2023-04-06T03:00:57;101619.38;;;1.87;70.77
31082;BME280;17737;52.586;13.284;2023-04-06T03:03:25;101617.00;;;1.83;70.63
31082;BME280;17737;52.586;13.284;2023-04-06T03:05:53;101616.34;;;1.79;70.85
31082;BME280;17737;52.586;13.284;2023-04-06T03:08:24;101615.09;;;1.71;71.94
31082;BME280;17737;52.586;13.284;2023-04-06T03:10:52;101614.34;;;1.83;71.21
31082;BME280;17737;52.586;13.284;2023-04-06T03:13:20;101612.84;;;1.79;71.12
31082;BME280;17737;52.586;13.284;2023-04-06T03:15:49;101624.69;;;1.73;72.07
31082;BME280;17737;52.586;13.284;2023-04-06T03:18:20;101619.91;;;1.64;72.02
31082;BME280;17737;52.586;13.284;2023-04-06T03:20:49;101622.84;;;1.60;72.66
31082;BME280;17737;52.586;13.284;2023-04-06T03:23:17;101629.63;;;1.79;72.15
31082;BME280;17737;52.586;13.284;2023-04-06T03:25:48;101626.13;;;1.93;71.72
31082;BME280;17737;52.586;13.284;2023-04-06T03:28:16;101622.47;;;1.95;71.52
31082;BME280;17737;52.586;13.284;2023-04-06T03:30:45;101626.66;;;2.13;70.80
31082;BME280;17737;52.586;13.284;2023-04-06T03:33:13;101628.06;;;2.05;71.09
31082;BME280;17737;52.586;13.284;2023-04-06T03:35:41;101624.53;;;1.90;71.72
31082;BME280;17737;52.586;13.284;2023-04-06T03:38:09;101631.50;;;1.77;72.05
31082;BME280;17737;52.586;13.284;2023-04-06T03:40:37;101630.00;;;1.73;72.23
31082;BME280;17737;52.586;13.284;2023-04-06T03:43:07;101627.00;;;1.64;72.15
31082;BME280;17737;52.586;13.284;2023-04-06T03:45:35;101638.88;;;1.58;73.08
31082;BME280;17737;52.586;13.284;2023-04-06T03:48:03;101634.69;;;1.54;73.10
31082;BME280;17737;52.586;13.284;2023-04-06T03:50:32;101645.41;;;1.53;73.46
31082;BME280;17737;52.586;13.284;2023-04-06T03:53:00;101639.72;;;1.59;73.27
31082;BME280;17737;52.586;13.284;2023-04-06T03:55:29;101639.47;;;1.63;73.04
31082;BME280;17737;52.586;13.284;2023-04-06T03:57:57;101649.75;;;1.54;72.99
31082;BME280;17737;52.586;13.284;2023-04-06T04:00:27;101641.47;;;1.44;73.48
31082;BME280;17737;52.586;13.284;2023-04-06T04:02:55;101649.94;;;1.35;73.63
31082;BME280;17737;52.586;13.284;2023-04-06T04:05:23;101658.69;;;1.37;74.13
31082;BME280;17737;52.586;13.284;2023-04-06T04:07:52;101660.38;;;1.38;73.56
31082;BME280;17737;52.586;13.284;2023-04-06T04:10:20;101657.00;;;1.36;73.45
31082;BME280;17737;52.586;13.284;2023-04-06T04:12:48;101664.50;;;1.44;73.21
31082;BME280;17737;52.586;13.284;2023-04-06T04:15:16;101660.66;;;1.34;73.28
31082;BME280;17737;52.586;13.284;2023-04-06T04:17:45;101663.91;;;1.39;73.34
31082;BME280;17737;52.586;13.284;2023-04-06T04:20:15;101660.66;;;1.34;73.78
31082;BME280;17737;52.586;13.284;2023-04-06T04:22:44;101657.16;;;1.33;74.08
31082;BME280;17737;52.586;13.284;2023-04-06T04:25:13;101658.63;;;1.23;74.56
31082;BME280;17737;52.586;13.284;2023-04-06T04:27:41;101655.72;;;1.28;74.62
31082;BME280;17737;52.586;13.284;2023-04-06T04:30:09;101658.53;;;1.24;74.44
31082;BME280;17737;52.586;13.284;2023-04-06T04:32:38;101660.16;;;1.27;74.83
31082;BME280;17737;52.586;13.284;2023-04-06T04:35:08;101661.25;;;1.39;74.44
31082;BME280;17737;52.586;13.284;2023-04-06T04:37:37;101661.41;;;1.51;74.01
31082;BME280;17737;52.586;13.284;2023-04-06T04:40:06;101657.50;;;1.43;73.98
31082;BME280;17737;52.586;13.284;2023-04-06T04:42:35;101666.72;;;1.51;74.04
31082;BME280;17737;52.586;13.284;2023-04-06T04:45:04;101663.78;;;1.56;73.63
31082;BME280;17737;52.586;13.284;2023-04-06T04:47:32;101657.28;;;1.61;73.34
31082;BME280;17737;52.586;13.284;2023-04-06T04:50:00;101664.78;;;1.69;73.30
31082;BME280;17737;52.586;13.284;2023-04-06T04:52:30;101659.72;;;1.80;73.03
31082;BME280;17737;52.586;13.284;2023-04-06T04:54:58;101667.69;;;1.80;72.68
31082;BME280;17737;52.586;13.284;2023-04-06T04:57:26;101668.25;;;1.85;72.83
31082;BME280;17737;52.586;13.284;2023-04-06T04:59:54;101677.88;;;2.01;71.89
31082;BME280;17737;52.586;13.284;2023-04-06T05:02:23;101680.28;;;2.06;72.08
31082;BME280;17737;52.586;13.284;2023-04-06T05:04:52;101669.72;;;2.04;71.85
31082;BME280;17737;52.586;13.284;2023-04-06T05:07:20;101677.63;;;2.20;71.59
31082;BME280;17737;52.586;13.284;2023-04-06T05:09:49;101677.34;;;2.10;71.91
31082;BME280;17737;52.586;13.284;2023-04-06T05:12:19;101678.25;;;1.95;72.56
31082;BME280;17737;52.586;13.284;2023-04-06T05:14:47;101674.84;;;1.93;72.58
31082;BME280;17737;52.586;13.284;2023-04-06T05:17:15;101680.81;;;1.97;72.73
31082;BME280;17737;52.586;13.284;2023-04-06T05:19:43;101683.19;;;2.01;72.76
31082;BME280;17737;52.586;13.284;2023-04-06T05:22:12;101682.09;;;2.05;72.95
31082;BME280;17737;52.586;13.284;2023-04-06T05:24:42;101686.75;;;2.16;72.38
31082;BME280;17737;52.586;13.284;2023-04-06T05:27:12;101685.34;;;2.24;71.99
31082;BME280;17737;52.586;13.284;2023-04-06T05:29:40;101685.25;;;2.26;72.05
31082;BME280;17737;52.586;13.284;2023-04-06T05:32:08;101683.28;;;2.29;71.57
31082;BME280;17737;52.586;13.284;2023-04-06T05:34:36;101686.31;;;2.37;71.28
31082;BME280;17737;52.586;13.284;2023-04-06T05:37:05;101693.16;;;2.41;71.67
31082;BME280;17737;52.586;13.284;2023-04-06T05:39:33;101694.56;;;2.47;71.21
31082;BME280;17737;52.586;13.284;2023-04-06T05:42:03;101695.16;;;2.52;71.39
31082;BME280;17737;52.586;13.284;2023-04-06T05:44:34;101694.69;;;2.60;71.18
31082;BME280;17737;52.586;13.284;2023-04-06T05:47:04;101693.16;;;2.70;70.94
31082;BME280;17737;52.586;13.284;2023-04-06T05:49:33;101697.72;;;2.82;69.63
31082;BME280;17737;52.586;13.284;2023-04-06T05:52:01;101697.34;;;2.88;69.71
31082;BME280;17737;52.586;13.284;2023-04-06T05:54:30;101702.56;;;2.89;69.50
31082;BME280;17737;52.586;13.284;2023-04-06T05:57:01;101697.06;;;2.92;69.10
31082;BME280;17737;52.586;13.284;2023-04-06T05:59:34;101698.28;;;3.01;69.23
31082;BME280;17737;52.586;13.284;2023-04-06T06:02:04;101696.06;;;3.07;68.71
31082;BME280;17737;52.586;13.284;2023-04-06T06:04:32;101700.72;;;3.18;68.56
31082;BME280;17737;52.586;13.284;2023-04-06T06:07:00;101696.72;;;3.25;68.30
31082;BME280;17737;52.586;13.284;2023-04-06T06:09:28;101694.19;;;3.36;68.00
31082;BME280;17737;52.586;13.284;2023-04-06T06:11:56;101698.88;;;3.32;67.85
31082;BME280;17737;52.586;13.284;2023-04-06T06:14:24;101691.19;;;3.54;67.34
31082;BME280;17737;52.586;13.284;2023-04-06T06:16:56;101699.34;;;3.65;66.72
31082;BME280;17737;52.586;13.284;2023-04-06T06:19:24;101700.38;;;3.63;66.87
31082;BME280;17737;52.586;13.284;2023-04-06T06:21:52;101694.91;;;3.79;66.15
31082;BME280;17737;52.586;13.284;2023-04-06T06:24:20;101705.91;;;3.87;65.86
31082;BME280;17737;52.586;13.284;2023-04-06T06:26:48;101702.97;;;4.04;65.79
31082;BME280;17737;52.586;13.284;2023-04-06T06:29:17;101699.13;;;4.08;65.30
31082;BME280;17737;52.586;13.284;2023-04-06T06:31:47;101698.94;;;4.23;64.51
31082;BME280;17737;52.586;13.284;2023-04-06T06:34:17;101694.38;;;4.25;64.90
31082;BME280;17737;52.586;13.284;2023-04-06T06:36:45;101694.06;;;4.42;63.89
31082;BME280;17737;52.586;13.284;2023-04-06T06:39:15;101701.97;;;4.44;63.80
31082;BME280;17737;52.586;13.284;2023-04-06T06:41:46;101697.91;;;4.51;64.13
31082;BME280;17737;52.586;13.284;2023-04-06T06:44:15;101702.81;;;4.57;63.32
31082;BME280;17737;52.586;13.284;2023-04-06T06:46:43;101699.50;;;4.66;63.17
31082;BME280;17737;52.586;13.284;2023-04-06T06:49:12;101700.03;;;4.71;62.91
31082;BME280;17737;52.586;13.284;2023-04-06T06:51:45;101704.75;;;4.80;62.23
31082;BME280;17737;52.586;13.284;2023-04-06T06:54:14;101701.03;;;5.06;61.83
31082;BME280;17737;52.586;13.284;2023-04-06T06:56:44;101701.78;;;5.21;60.76
31082;BME280;17737;52.586;13.284;2023-04-06T06:59:13;101700.78;;;5.22;60.88
31082;BME280;17737;52.586;13.284;2023-04-06T07:01:42;101704.84;;;5.27;60.33
31082;BME280;17737;52.586;13.284;2023-04-06T07:04:10;101692.75;;;5.34;60.12
31082;BME280;17737;52.586;13.284;2023-04-06T07:06:38;101696.63;;;5.54;59.77
31082;BME280;17737;52.586;13.284;2023-04-06T07:09:08;101697.22;;;5.70;59.16
31082;BME280;17737;52.586;13.284;2023-04-06T07:11:36;101696.56;;;5.66;58.48
31082;BME280;17737;52.586;13.284;2023-04-06T07:14:09;101698.47;;;5.77;58.13
31082;BME280;17737;52.586;13.284;2023-04-06T07:16:40;101702.69;;;5.92;57.97
31082;BME280;17737;52.586;13.284;2023-04-06T07:19:11;101698.47;;;6.00;56.61
31082;BME280;17737;52.586;13.284;2023-04-06T07:21:42;101697.78;;;6.21;55.31
31082;BME280;17737;52.586;13.284;2023-04-06T07:24:12;101702.91;;;6.24;54.91
31082;BME280;17737;52.586;13.284;2023-04-06T07:26:41;101700.03;;;6.38;54.59
31082;BME280;17737;52.586;13.284;2023-04-06T07:29:09;101695.41;;;6.51;54.42
31082;BME280;17737;52.586;13.284;2023-04-06T07:31:39;101702.00;;;6.58;53.43
31082;BME280;17737;52.586;13.284;2023-04-06T07:34:07;101708.06;;;6.49;53.38
31082;BME280;17737;52.586;13.284;2023-04-06T07:36:35;101694.72;;;6.60;53.06
31082;BME280;17737;52.586;13.284;2023-04-06T07:39:03;101698.63;;;6.67;51.94
31082;BME280;17737;52.586;13.284;2023-04-06T07:41:33;101700.34;;;6.79;52.58
31082;BME280;17737;52.586;13.284;2023-04-06T07:44:01;101695.22;;;6.98;51.00
31082;BME280;17737;52.586;13.284;2023-04-06T07:46:30;101694.84;;;7.02;52.13
31082;BME280;17737;52.586;13.284;2023-04-06T07:48:59;101702.66;;;7.16;52.37
31082;BME280;17737;52.586;13.284;2023-04-06T07:51:28;101695.91;;;7.22;51.78
31082;BME280;17737;52.586;13.284;2023-04-06T07:53:57;101693.59;;;7.40;50.10
31082;BME280;17737;52.586;13.284;2023-04-06T07:56:25;101694.44;;;7.29;50.38
31082;BME280;17737;52.586;13.284;2023-04-06T07:58:55;101694.00;;;7.13;50.65
31082;BME280;17737;52.586;13.284;2023-04-06T08:01:24;101700.75;;;7.39;49.43
31082;BME280;17737;52.586;13.284;2023-04-06T08:03:55;101700.50;;;7.53;49.71
31082;BME280;17737;52.586;13.284;2023-04-06T08:06:24;101698.81;;;7.52;49.25
31082;BME280;17737;52.586;13.284;2023-04-06T08:08:52;101697.31;;;7.59;49.17
31082;BME280;17737;52.586;13.284;2023-04-06T08:11:20;101690.25;;;7.58;48.16
31082;BME280;17737;52.586;13.284;2023-04-06T08:13:49;101697.81;;;7.53;47.88
31082;BME280;17737;52.586;13.284;2023-04-06T08:16:18;101700.22;;;7.67;47.89
31082;BME280;17737;52.586;13.284;2023-04-06T08:18:47;101701.50;;;7.84;46.13
31082;BME280;17737;52.586;13.284;2023-04-06T08:21:15;101690.94;;;8.03;46.13
31082;BME280;17737;52.586;13.284;2023-04-06T08:23:43;101692.75;;;8.02;46.55
31082;BME280;17737;52.586;13.284;2023-04-06T08:26:12;101701.88;;;8.42;45.65
31082;BME280;17737;52.586;13.284;2023-04-06T08:28:40;101695.97;;;8.28;44.87
31082;BME280;17737;52.586;13.284;2023-04-06T08:31:12;101700.16;;;7.89;45.00
31082;BME280;17737;52.586;13.284;2023-04-06T08:33:43;101694.00;;;8.19;43.75
31082;BME280;17737;52.586;13.284;2023-04-06T08:36:13;101699.72;;;8.05;44.19
31082;BME280;17737;52.586;13.284;2023-04-06T08:38:43;101702.66;;;8.22;43.64
31082;BME280;17737;52.586;13.284;2023-04-06T08:41:12;101706.81;;;8.68;43.61
31082;BME280;17737;52.586;13.284;2023-04-06T08:43:47;101701.13;;;8.40;44.63
31082;BME280;17737;52.586;13.284;2023-04-06T08:46:21;101701.78;;;8.33;44.01
31082;BME280;17737;52.586;13.284;2023-04-06T08:48:59;101706.06;;;8.56;43.91
31082;BME280;17737;52.586;13.284;2023-04-06T08:51:37;101707.53;;;8.70;43.81
31082;BME280;17737;52.586;13.284;2023-04-06T08:54:07;101706.09;;;8.96;42.34
31082;BME280;17737;52.586;13.284;2023-04-06T08:56:38;101703.81;;;8.40;43.17
31082;BME280;17737;52.586;13.284;2023-04-06T08:59:08;101706.09;;;8.45;42.41
31082;BME280;17737;52.586;13.284;2023-04-06T09:01:39;101703.56;;;8.64;42.21
31082;BME280;17737;52.586;13.284;2023-04-06T09:04:10;101695.28;;;8.77;41.88
31082;BME280;17737;52.586;13.284;2023-04-06T09:06:39;101704.13;;;8.68;42.67
31082;BME280;17737;52.586;13.284;2023-04-06T09:09:08;101693.50;;;8.87;42.47
31082;BME280;17737;52.586;13.284;2023-04-06T09:11:44;101696.44;;;8.84;41.55
31082;BME280;17737;52.586;13.284;2023-04-06T09:14:14;101707.13;;;8.74;42.07
31082;BME280;17737;52.586;13.284;2023-04-06T09:16:45;101692.75;;;9.15;41.89
31082;BME280;17737;52.586;13.284;2023-04-06T09:19:15;101694.56;;;9.14;40.39
31082;BME280;17737;52.586;13.284;2023-04-06T09:21:43;101690.25;;;8.93;39.63
31082;BME280;17737;52.586;13.284;2023-04-06T09:24:11;101691.88;;;9.05;39.45
31082;BME280;17737;52.586;13.284;2023-04-06T09:26:46;101685.16;;;9.29;38.80
31082;BME280;17737;52.586;13.284;2023-04-06T09:29:24;101683.94;;;9.43;39.78
31082;BME280;17737;52.586;13.284;2023-04-06T09:32:02;101681.00;;;9.65;38.07
31082;BME280;17737;52.586;13.284;2023-04-06T09:34:33;101679.84;;;9.67;39.04
31082;BME280;17737;52.586;13.284;2023-04-06T09:37:12;101675.44;;;9.38;37.77
31082;BME280;17737;52.586;13.284;2023-04-06T09:39:41;101685.09;;;9.50;38.38
31082;BME280;17737;52.586;13.284;2023-04-06T09:42:09;101681.97;;;9.54;38.29
31082;BME280;17737;52.586;13.284;2023-04-06T09:44:37;101669.50;;;9.63;36.97
31082;BME280;17737;52.586;13.284;2023-04-06T09:47:06;101674.03;;;9.53;36.62
31082;BME280;17737;52.586;13.284;2023-04-06T09:49:37;101669.38;;;9.74;36.60
31082;BME280;17737;52.586;13.284;2023-04-06T09:52:06;101676.03;;;9.99;37.76
31082;BME280;17737;52.586;13.284;2023-04-06T09:54:40;101661.19;;;10.04;36.63
31082;BME280;17737;52.586;13.284;2023-04-06T09:57:17;101669.53;;;9.92;37.30
31082;BME280;17737;52.586;13.284;2023-04-06T10:00:00;101665.72;;;10.13;37.33
31082;BME280;17737;52.586;13.284;2023-04-06T10:02:45;101663.56;;;9.98;37.08
31082;BME280;17737;52.586;13.284;2023-04-06T10:05:26;101658.72;;;10.39;36.86
31082;BME280;17737;52.586;13.284;2023-04-06T10:08:05;101659.59;;;10.02;37.13
31082;BME280;17737;52.586;13.284;2023-04-06T10:10:36;101651.50;;;10.30;36.63
31082;BME280;17737;52.586;13.284;2023-04-06T10:13:08;101659.44;;;10.41;37.56
31082;BME280;17737;52.586;13.284;2023-04-06T10:15:38;101660.78;;;10.74;34.98
31082;BME280;17737;52.586;13.284;2023-04-06T10:18:08;101664.03;;;10.77;33.92
31082;BME280;17737;52.586;13.284;2023-04-06T10:20:41;101661.34;;;10.77;35.04
31082;BME280;17737;52.586;13.284;2023-04-06T10:23:19;101651.97;;;9.78;35.36
31082;BME280;17737;52.586;13.284;2023-04-06T10:25:55;101652.22;;;9.85;36.59
31082;BME280;17737;52.586;13.284;2023-04-06T10:28:26;101651.66;;;10.00;36.93
31082;BME280;17737;52.586;13.284;2023-04-06T10:31:00;101646.84;;;10.32;36.12
31082;BME280;17737;52.586;13.284;2023-04-06T10:33:29;101649.81;;;10.29;35.13
31082;BME280;17737;52.586;13.284;2023-04-06T10:36:09;101647.00;;;10.21;34.89
31082;BME280;17737;52.586;13.284;2023-04-06T10:38:39;101651.69;;;10.75;34.76
31082;BME280;17737;52.586;13.284;2023-04-06T10:41:09;101656.16;;;10.94;33.71
31082;BME280;17737;52.586;13.284;2023-04-06T10:43:40;101651.94;;;10.81;33.86
31082;BME280;17737;52.586;13.284;2023-04-06T10:46:09;101651.84;;;11.01;34.67
31082;BME280;17737;52.586;13.284;2023-04-06T10:48:39;101642.25;;;10.98;32.37
31082;BME280;17737;52.586;13.284;2023-04-06T10:51:10;101645.06;;;10.97;32.10
31082;BME280;17737;52.586;13.284;2023-04-06T10:53:41;101650.84;;;11.02;31.81
31082;BME280;17737;52.586;13.284;2023-04-06T10:56:11;101646.91;;;10.59;32.81
31082;BME280;17737;52.586;13.284;2023-04-06T10:58:44;101636.72;;;10.53;33.17
31082;BME280;17737;52.586;13.284;2023-04-06T11:01:14;101643.97;;;11.17;32.53
31082;BME280;17737;52.586;13.284;2023-04-06T11:03:44;101635.00;;;11.43;30.43
31082;BME280;17737;52.586;13.284;2023-04-06T11:06:19;101628.13;;;11.04;30.39
31082;BME280;17737;52.586;13.284;2023-04-06T11:08:48;101639.72;;;10.50;32.47
31082;BME280;17737;52.586;13.284;2023-04-06T11:11:18;101632.06;;;10.55;32.98
31082;BME280;17737;52.586;13.284;2023-04-06T11:13:49;101637.63;;;10.35;34.06
31082;BME280;17737;52.586;13.284;2023-04-06T11:16:20;101634.00;;;10.63;33.13
31082;BME280;17737;52.586;13.284;2023-04-06T11:18:51;101632.47;;;10.60;32.88
31082;BME280;17737;52.586;13.284;2023-04-06T11:21:33;101631.03;;;10.93;31.85
31082;BME280;17737;52.586;13.284;2023-04-06T11:24:05;101628.59;;;11.27;32.59
31082;BME280;17737;52.586;13.284;2023-04-06T11:26:38;101618.06;;;11.51;31.99
31082;BME280;17737;52.586;13.284;2023-04-06T11:29:08;101618.22;;;11.22;31.77
31082;BME280;17737;52.586;13.284;2023-04-06T11:31:40;101611.63;;;10.90;31.69
31082;BME280;17737;52.586;13.284;2023-04-06T11:34:13;101617.78;;;11.27;32.00
31082;BME280;17737;52.586;13.284;2023-04-06T11:36:47;101606.03;;;11.45;31.59
31082;BME280;17737;52.586;13.284;2023-04-06T11:39:18;101619.41;;;11.20;32.81
31082;BME280;17737;52.586;13.284;2023-04-06T11:41:49;101610.31;;;10.94;32.59
31082;BME280;17737;52.586;13.284;2023-04-06T11:44:29;101592.78;;;10.80;31.60
31082;BME280;17737;52.586;13.284;2023-04-06T11:47:00;101602.19;;;11.03;32.28
31082;BME280;17737;52.586;13.284;2023-04-06T11:49:29;101600.13;;;11.15;32.44
31082;BME280;17737;52.586;13.284;2023-04-06T11:52:00;101606.34;;;11.15;32.61
31082;BME280;17737;52.586;13.284;2023-04-06T11:54:32;101596.75;;;11.48;31.98
31082;BME280;17737;52.586;13.284;2023-04-06T11:57:02;101596.81;;;11.65;30.62
31082;BME280;17737;52.586;13.284;2023-04-06T11:59:31;101590.81;;;11.62;30.55
31082;BME280;17737;52.586;13.284;2023-04-06T12:02:01;101589.25;;;11.86;30.55
31082;BME280;17737;52.586;13.284;2023-04-06T12:04:30;101591.50;;;12.17;30.92
31082;BME280;17737;52.586;13.284;2023-04-06T12:07:00;101587.41;;;12.13;30.17
31082;BME280;17737;52.586;13.284;2023-04-06T12:09:28;101591.75;;;12.31;30.63
31082;BME280;17737;52.586;13.284;2023-04-06T12:11:57;101597.38;;;12.12;30.20
31082;BME280;17737;52.586;13.284;2023-04-06T12:14:25;101590.31;;;12.19;30.05
31082;BME280;17737;52.586;13.284;2023-04-06T12:16:53;101585.03;;;11.92;29.76
31082;BME280;17737;52.586;13.284;2023-04-06T12:19:22;101584.00;;;12.11;30.29
31082;BME280;17737;52.586;13.284;2023-04-06T12:21:52;101584.38;;;11.90;31.24
31082;BME280;17737;52.586;13.284;2023-04-06T12:24:22;101582.97;;;11.86;30.82
31082;BME280;17737;52.586;13.284;2023-04-06T12:26:51;101591.94;;;11.69;31.04
31082;BME280;17737;52.586;13.284;2023-04-06T12:29:35;101578.97;;;11.90;30.76
31082;BME280;17737;52.586;13.284;2023-04-06T12:32:04;101578.34;;;11.43;29.92
31082;BME280;17737;52.586;13.284;2023-04-06T12:34:32;101565.78;;;11.52;30.32
31082;BME280;17737;52.586;13.284;2023-04-06T12:37:01;101573.06;;;12.12;30.38
31082;BME280;17737;52.586;13.284;2023-04-06T12:39:30;101577.09;;;11.55;30.86
31082;BME280;17737;52.586;13.284;2023-04-06T12:41:58;101576.25;;;11.37;30.53
31082;BME280;17737;52.586;13.284;2023-04-06T12:44:27;101576.78;;;11.58;30.75
31082;BME280;17737;52.586;13.284;2023-04-06T12:46:56;101575.50;;;11.62;30.49
31082;BME280;17737;52.586;13.284;2023-04-06T12:49:25;101568.84;;;11.92;30.04
31082;BME280;17737;52.586;13.284;2023-04-06T12:51:55;101565.75;;;11.87;29.46
31082;BME280;17737;52.586;13.284;2023-04-06T12:54:23;101566.28;;;11.90;30.27
31082;BME280;17737;52.586;13.284;2023-04-06T12:56:54;101556.25;;;12.00;29.42
31082;BME280;17737;52.586;13.284;2023-04-06T12:59:22;101548.97;;;12.19;29.45